sensor_id;sensor_type;location;lat;lon;timestamp;temperature;humidity
79014;DHT22;68419;44.714;37.756;2023-03-21T00:00:08;26.12;34.55
79014;DHT22;68419;44.714;37.756;2023-03-21T00:01:13;26.12;34.53
79014;DHT22;68419;44.714;37.756;2023-03-21T00:02:14;26.13;34.54
79014;DHT22;68419;44.714;37.756;2023-03-21T00:03:17;26.13;34.53
79014;DHT22;68419;44.714;37.756;2023-03-21T00:04:19;26.13;34.53
79014;DHT22;68419;44.714;37.756;2023-03-21T00:05:21;26.13;34.50
79014;DHT22;68419;44.714;37.756;2023-03-21T00:06:22;26.12;34.52
79014;DHT22;68419;44.714;37.756;2023-03-21T00:07:24;26.10;34.57
79014;DHT22;68419;44.714;37.756;2023-03-21T00:08:25;26.10;34.55
79014;DHT22;68419;44.714;37.756;2023-03-21T00:09:27;26.13;34.50
79014;DHT22;68419;44.714;37.756;2023-03-21T00:10:29;26.12;34.50
79014;DHT22;68419;44.714;37.756;2023-03-21T00:11:30;26.13;34.51
79014;DHT22;68419;44.714;37.756;2023-03-21T00:12:32;26.10;34.57
79014;DHT22;68419;44.714;37.756;2023-03-21T00:13:38;26.10;34.57
79014;DHT22;68419;44.714;37.756;2023-03-21T00:14:42;26.11;34.54
79014;DHT22;68419;44.714;37.756;2023-03-21T00:15:44;26.12;34.52
79014;DHT22;68419;44.714;37.756;2023-03-21T00:16:54;26.12;34.50
79014;DHT22;68419;44.714;37.756;2023-03-21T00:17:56;26.13;34.50
79014;DHT22;68419;44.714;37.756;2023-03-21T00:19:04;26.12;34.50
79014;DHT22;68419;44.714;37.756;2023-03-21T00:20:10;26.12;34.51
79014;DHT22;68419;44.714;37.756;2023-03-21T00:21:24;26.13;34.51
79014;DHT22;68419;44.714;37.756;2023-03-21T00:22:28;26.12;34.51
79014;DHT22;68419;44.714;37.756;2023-03-21T00:23:31;26.12;34.51
79014;DHT22;68419;44.714;37.756;2023-03-21T00:24:33;26.12;34.48
79014;DHT22;68419;44.714;37.756;2023-03-21T00:25:35;26.13;34.51
79014;DHT22;68419;44.714;37.756;2023-03-21T00:26:37;26.12;34.51
79014;DHT22;68419;44.714;37.756;2023-03-21T00:27:39;26.10;34.53
79014;DHT22;68419;44.714;37.756;2023-03-21T00:28:42;26.09;34.55
79014;DHT22;68419;44.714;37.756;2023-03-21T00:29:44;26.08;34.60
79014;DHT22;68419;44.714;37.756;2023-03-21T00:30:45;26.06;34.66
79014;DHT22;68419;44.714;37.756;2023-03-21T00:31:47;26.06;34.65
79014;DHT22;68419;44.714;37.756;2023-03-21T00:32:49;26.05;34.68
79014;DHT22;68419;44.714;37.756;2023-03-21T00:33:51;26.05;34.73
79014;DHT22;68419;44.714;37.756;2023-03-21T00:34:52;26.06;34.63
79014;DHT22;68419;44.714;37.756;2023-03-21T00:35:54;26.06;34.66
79014;DHT22;68419;44.714;37.756;2023-03-21T00:36:56;26.04;35.03
79014;DHT22;68419;44.714;37.756;2023-03-21T00:37:57;26.05;35.03
79014;DHT22;68419;44.714;37.756;2023-03-21T00:38:59;26.02;34.99
79014;DHT22;68419;44.714;37.756;2023-03-21T00:40:08;26.04;34.85
79014;DHT22;68419;44.714;37.756;2023-03-21T00:41:12;26.06;34.76
79014;DHT22;68419;44.714;37.756;2023-03-21T00:42:15;26.07;34.83
79014;DHT22;68419;44.714;37.756;2023-03-21T00:43:16;26.07;34.79
79014;DHT22;68419;44.714;37.756;2023-03-21T00:44:19;26.08;34.76
79014;DHT22;68419;44.714;37.756;2023-03-21T00:45:21;26.04;34.83
79014;DHT22;68419;44.714;37.756;2023-03-21T00:46:23;26.04;34.82
79014;DHT22;68419;44.714;37.756;2023-03-21T00:47:27;26.05;34.77
79014;DHT22;68419;44.714;37.756;2023-03-21T00:48:29;26.05;34.77
79014;DHT22;68419;44.714;37.756;2023-03-21T00:49:31;26.06;34.76
79014;DHT22;68419;44.714;37.756;2023-03-21T00:50:37;26.05;34.79
79014;DHT22;68419;44.714;37.756;2023-03-21T00:51:39;26.05;34.80
79014;DHT22;68419;44.714;37.756;2023-03-21T00:52:40;26.03;34.82
79014;DHT22;68419;44.714;37.756;2023-03-21T00:53:42;26.02;34.86
79014;DHT22;68419;44.714;37.756;2023-03-21T00:54:44;26.03;34.87
79014;DHT22;68419;44.714;37.756;2023-03-21T00:55:46;26.04;34.82
79014;DHT22;68419;44.714;37.756;2023-03-21T00:56:49;26.05;34.76
79014;DHT22;68419;44.714;37.756;2023-03-21T00:57:51;26.05;34.80
79014;DHT22;68419;44.714;37.756;2023-03-21T00:58:52;26.05;34.77
79014;DHT22;68419;44.714;37.756;2023-03-21T00:59:54;26.05;34.80
79014;DHT22;68419;44.714;37.756;2023-03-21T01:00:56;26.05;34.77
79014;DHT22;68419;44.714;37.756;2023-03-21T01:01:57;26.08;34.74
79014;DHT22;68419;44.714;37.756;2023-03-21T01:03:00;26.08;34.74
79014;DHT22;68419;44.714;37.756;2023-03-21T01:04:05;26.07;34.72
79014;DHT22;68419;44.714;37.756;2023-03-21T01:05:11;26.07;34.75
79014;DHT22;68419;44.714;37.756;2023-03-21T01:06:12;26.06;34.79
79014;DHT22;68419;44.714;37.756;2023-03-21T01:07:14;26.05;34.79
79014;DHT22;68419;44.714;37.756;2023-03-21T01:08:17;26.04;34.82
79014;DHT22;68419;44.714;37.756;2023-03-21T01:09:21;26.05;34.78
79014;DHT22;68419;44.714;37.756;2023-03-21T01:10:22;26.05;34.79
79014;DHT22;68419;44.714;37.756;2023-03-21T01:11:26;26.06;34.79
79014;DHT22;68419;44.714;37.756;2023-03-21T01:12:28;26.04;34.78
79014;DHT22;68419;44.714;37.756;2023-03-21T01:13:30;26.06;34.73
79014;DHT22;68419;44.714;37.756;2023-03-21T01:14:32;26.05;34.75
79014;DHT22;68419;44.714;37.756;2023-03-21T01:15:34;26.05;34.76
79014;DHT22;68419;44.714;37.756;2023-03-21T01:16:36;26.07;34.73
79014;DHT22;68419;44.714;37.756;2023-03-21T01:17:38;26.05;34.75
79014;DHT22;68419;44.714;37.756;2023-03-21T01:18:40;26.06;34.76
79014;DHT22;68419;44.714;37.756;2023-03-21T01:19:42;26.09;34.71
79014;DHT22;68419;44.714;37.756;2023-03-21T01:20:44;26.08;34.68
79014;DHT22;68419;44.714;37.756;2023-03-21T01:21:46;26.10;34.68
79014;DHT22;68419;44.714;37.756;2023-03-21T01:22:47;26.08;34.70
79014;DHT22;68419;44.714;37.756;2023-03-21T01:23:49;26.08;34.75
79014;DHT22;68419;44.714;37.756;2023-03-21T01:24:50;26.08;34.69
79014;DHT22;68419;44.714;37.756;2023-03-21T01:25:54;26.09;34.70
79014;DHT22;68419;44.714;37.756;2023-03-21T01:26:56;26.08;34.69
79014;DHT22;68419;44.714;37.756;2023-03-21T01:27:58;26.07;34.74
79014;DHT22;68419;44.714;37.756;2023-03-21T01:29:00;26.06;34.78
79014;DHT22;68419;44.714;37.756;2023-03-21T01:30:02;26.07;34.74
79014;DHT22;68419;44.714;37.756;2023-03-21T01:31:05;26.08;34.73
79014;DHT22;68419;44.714;37.756;2023-03-21T01:32:07;26.08;34.73
79014;DHT22;68419;44.714;37.756;2023-03-21T01:33:09;26.08;34.72
79014;DHT22;68419;44.714;37.756;2023-03-21T01:34:11;26.07;34.74
79014;DHT22;68419;44.714;37.756;2023-03-21T01:35:12;26.08;34.72
79014;DHT22;68419;44.714;37.756;2023-03-21T01:36:20;26.08;34.74
79014;DHT22;68419;44.714;37.756;2023-03-21T01:37:23;26.07;34.73
79014;DHT22;68419;44.714;37.756;2023-03-21T01:38:27;26.09;34.70
79014;DHT22;68419;44.714;37.756;2023-03-21T01:39:28;26.07;34.73
79014;DHT22;68419;44.714;37.756;2023-03-21T01:40:30;26.08;34.71
79014;DHT22;68419;44.714;37.756;2023-03-21T01:41:55;26.09;34.70
79014;DHT22;68419;44.714;37.756;2023-03-21T01:42:59;26.08;34.70
79014;DHT22;68419;44.714;37.756;2023-03-21T01:44:01;26.09;34.71
79014;DHT22;68419;44.714;37.756;2023-03-21T01:46:51;26.09;34.70
79014;DHT22;68419;44.714;37.756;2023-03-21T01:48:14;26.07;34.74
79014;DHT22;68419;44.714;37.756;2023-03-21T01:49:27;26.08;34.74
79014;DHT22;68419;44.714;37.756;2023-03-21T01:50:42;26.08;34.71
79014;DHT22;68419;44.714;37.756;2023-03-21T01:52:13;26.07;34.72
79014;DHT22;68419;44.714;37.756;2023-03-21T01:53:18;26.05;34.79
79014;DHT22;68419;44.714;37.756;2023-03-21T01:54:24;26.05;34.81
79014;DHT22;68419;44.714;37.756;2023-03-21T01:55:29;26.03;34.81
79014;DHT22;68419;44.714;37.756;2023-03-21T01:56:36;26.06;34.76
79014;DHT22;68419;44.714;37.756;2023-03-21T01:57:47;26.06;34.74
79014;DHT22;68419;44.714;37.756;2023-03-21T01:58:51;26.06;34.73
79014;DHT22;68419;44.714;37.756;2023-03-21T02:00:21;26.08;34.72
79014;DHT22;68419;44.714;37.756;2023-03-21T02:01:34;26.08;34.74
79014;DHT22;68419;44.714;37.756;2023-03-21T02:02:42;26.07;34.74
79014;DHT22;68419;44.714;37.756;2023-03-21T02:04:13;26.09;34.72
79014;DHT22;68419;44.714;37.756;2023-03-21T02:05:41;26.05;34.82
79014;DHT22;68419;44.714;37.756;2023-03-21T02:06:55;26.01;34.89
79014;DHT22;68419;44.714;37.756;2023-03-21T02:08:12;26.02;34.88
79014;DHT22;68419;44.714;37.756;2023-03-21T02:09:18;26.03;34.85
79014;DHT22;68419;44.714;37.756;2023-03-21T02:10:21;26.03;34.86
79014;DHT22;68419;44.714;37.756;2023-03-21T02:11:27;26.06;34.79
79014;DHT22;68419;44.714;37.756;2023-03-21T02:12:31;26.05;34.82
79014;DHT22;68419;44.714;37.756;2023-03-21T02:13:32;26.05;34.84
79014;DHT22;68419;44.714;37.756;2023-03-21T02:14:36;26.04;34.85
79014;DHT22;68419;44.714;37.756;2023-03-21T02:16:01;26.07;34.75
79014;DHT22;68419;44.714;37.756;2023-03-21T02:20:26;25.99;34.94
79014;DHT22;68419;44.714;37.756;2023-03-21T02:21:52;25.98;34.99
79014;DHT22;68419;44.714;37.756;2023-03-21T02:23:20;25.97;34.98
79014;DHT22;68419;44.714;37.756;2023-03-21T02:27:20;25.97;34.99
79014;DHT22;68419;44.714;37.756;2023-03-21T02:28:39;25.98;34.97
79014;DHT22;68419;44.714;37.756;2023-03-21T02:34:37;25.98;34.99
79014;DHT22;68419;44.714;37.756;2023-03-21T02:38:36;25.94;35.04
79014;DHT22;68419;44.714;37.756;2023-03-21T02:41:18;25.94;35.05
79014;DHT22;68419;44.714;37.756;2023-03-21T02:42:26;25.95;35.02
79014;DHT22;68419;44.714;37.756;2023-03-21T02:45:44;25.98;35.00
79014;DHT22;68419;44.714;37.756;2023-03-21T02:46:49;25.98;34.95
79014;DHT22;68419;44.714;37.756;2023-03-21T02:47:56;25.99;34.95
79014;DHT22;68419;44.714;37.756;2023-03-21T02:49:19;25.98;34.97
79014;DHT22;68419;44.714;37.756;2023-03-21T02:50:32;25.98;34.97
79014;DHT22;68419;44.714;37.756;2023-03-21T02:51:38;25.97;35.01
79014;DHT22;68419;44.714;37.756;2023-03-21T02:52:44;25.98;34.97
79014;DHT22;68419;44.714;37.756;2023-03-21T02:54:01;25.97;34.99
79014;DHT22;68419;44.714;37.756;2023-03-21T02:55:12;25.99;35.02
79014;DHT22;68419;44.714;37.756;2023-03-21T02:56:23;25.99;34.94
79014;DHT22;68419;44.714;37.756;2023-03-21T02:57:30;26.01;34.93
79014;DHT22;68419;44.714;37.756;2023-03-21T02:58:37;25.99;34.94
79014;DHT22;68419;44.714;37.756;2023-03-21T02:59:40;26.02;34.91
79014;DHT22;68419;44.714;37.756;2023-03-21T03:00:47;26.03;34.89
79014;DHT22;68419;44.714;37.756;2023-03-21T03:02:00;26.06;34.84
79014;DHT22;68419;44.714;37.756;2023-03-21T03:03:03;26.04;34.85
79014;DHT22;68419;44.714;37.756;2023-03-21T03:04:23;26.03;34.92
79014;DHT22;68419;44.714;37.756;2023-03-21T03:05:27;25.98;34.95
79014;DHT22;68419;44.714;37.756;2023-03-21T03:06:45;25.98;35.02
79014;DHT22;68419;44.714;37.756;2023-03-21T03:09:23;25.96;35.00
79014;DHT22;68419;44.714;37.756;2023-03-21T03:12:16;25.98;34.97
79014;DHT22;68419;44.714;37.756;2023-03-21T03:15:51;25.98;34.99
79014;DHT22;68419;44.714;37.756;2023-03-21T03:18:48;25.94;35.31
79014;DHT22;68419;44.714;37.756;2023-03-21T03:20:12;25.90;35.89
79014;DHT22;68419;44.714;37.756;2023-03-21T03:22:34;25.79;36.59
79014;DHT22;68419;44.714;37.756;2023-03-21T03:24:01;25.76;37.01
79014;DHT22;68419;44.714;37.756;2023-03-21T03:25:06;25.74;37.15
79014;DHT22;68419;44.714;37.756;2023-03-21T03:26:35;25.72;37.22
79014;DHT22;68419;44.714;37.756;2023-03-21T03:27:40;25.68;37.36
79014;DHT22;68419;44.714;37.756;2023-03-21T03:28:48;25.66;37.44
79014;DHT22;68419;44.714;37.756;2023-03-21T03:29:52;25.65;37.40
79014;DHT22;68419;44.714;37.756;2023-03-21T03:31:00;25.66;37.48
79014;DHT22;68419;44.714;37.756;2023-03-21T03:32:14;25.66;37.50
79014;DHT22;68419;44.714;37.756;2023-03-21T03:33:19;25.64;37.62
79014;DHT22;68419;44.714;37.756;2023-03-21T03:34:28;25.64;37.64
79014;DHT22;68419;44.714;37.756;2023-03-21T03:35:33;25.62;37.66
79014;DHT22;68419;44.714;37.756;2023-03-21T03:36:39;25.63;37.66
79014;DHT22;68419;44.714;37.756;2023-03-21T03:37:49;25.64;37.80
79014;DHT22;68419;44.714;37.756;2023-03-21T03:38:53;25.64;37.82
79014;DHT22;68419;44.714;37.756;2023-03-21T03:40:17;25.61;37.85
79014;DHT22;68419;44.714;37.756;2023-03-21T03:41:33;25.63;37.75
79014;DHT22;68419;44.714;37.756;2023-03-21T03:42:51;25.63;37.79
79014;DHT22;68419;44.714;37.756;2023-03-21T03:44:03;25.62;37.82
79014;DHT22;68419;44.714;37.756;2023-03-21T03:45:10;25.63;37.75
79014;DHT22;68419;44.714;37.756;2023-03-21T03:49:20;25.61;37.67
79014;DHT22;68419;44.714;37.756;2023-03-21T03:51:53;25.62;37.68
79014;DHT22;68419;44.714;37.756;2023-03-21T03:53:29;25.62;37.64
79014;DHT22;68419;44.714;37.756;2023-03-21T03:54:39;25.61;37.65
79014;DHT22;68419;44.714;37.756;2023-03-21T03:55:44;25.58;37.59
79014;DHT22;68419;44.714;37.756;2023-03-21T03:56:49;25.59;37.62
79014;DHT22;68419;44.714;37.756;2023-03-21T03:57:52;25.58;37.61
79014;DHT22;68419;44.714;37.756;2023-03-21T03:58:56;25.56;37.72
79014;DHT22;68419;44.714;37.756;2023-03-21T04:00:13;25.58;37.70
79014;DHT22;68419;44.714;37.756;2023-03-21T04:01:18;25.58;37.75
79014;DHT22;68419;44.714;37.756;2023-03-21T04:02:20;25.59;37.79
79014;DHT22;68419;44.714;37.756;2023-03-21T04:03:22;25.60;37.74
79014;DHT22;68419;44.714;37.756;2023-03-21T04:04:24;25.62;37.69
79014;DHT22;68419;44.714;37.756;2023-03-21T04:05:29;25.63;37.70
79014;DHT22;68419;44.714;37.756;2023-03-21T04:06:31;25.63;37.62
79014;DHT22;68419;44.714;37.756;2023-03-21T04:07:34;25.62;37.66
79014;DHT22;68419;44.714;37.756;2023-03-21T04:08:35;25.63;37.57
79014;DHT22;68419;44.714;37.756;2023-03-21T04:09:38;25.62;37.62
79014;DHT22;68419;44.714;37.756;2023-03-21T04:10:43;25.62;37.64
79014;DHT22;68419;44.714;37.756;2023-03-21T04:11:45;25.65;37.62
79014;DHT22;68419;44.714;37.756;2023-03-21T04:12:47;25.64;37.61
79014;DHT22;68419;44.714;37.756;2023-03-21T04:14:11;25.63;37.58
79014;DHT22;68419;44.714;37.756;2023-03-21T04:15:13;25.65;37.56
79014;DHT22;68419;44.714;37.756;2023-03-21T04:16:19;25.66;37.55
79014;DHT22;68419;44.714;37.756;2023-03-21T04:17:21;25.66;37.59
79014;DHT22;68419;44.714;37.756;2023-03-21T04:18:23;25.66;37.54
79014;DHT22;68419;44.714;37.756;2023-03-21T04:19:25;25.65;37.55
79014;DHT22;68419;44.714;37.756;2023-03-21T04:20:27;25.66;37.51
79014;DHT22;68419;44.714;37.756;2023-03-21T04:21:29;25.67;37.49
79014;DHT22;68419;44.714;37.756;2023-03-21T04:22:30;25.66;37.46
79014;DHT22;68419;44.714;37.756;2023-03-21T04:23:33;25.68;37.48
79014;DHT22;68419;44.714;37.756;2023-03-21T04:24:37;25.68;37.41
79014;DHT22;68419;44.714;37.756;2023-03-21T04:25:39;25.71;37.30
79014;DHT22;68419;44.714;37.756;2023-03-21T04:26:41;25.73;37.27
79014;DHT22;68419;44.714;37.756;2023-03-21T04:28:17;25.76;37.28
79014;DHT22;68419;44.714;37.756;2023-03-21T04:29:40;25.77;37.23
79014;DHT22;68419;44.714;37.756;2023-03-21T04:31:06;25.79;37.45
79014;DHT22;68419;44.714;37.756;2023-03-21T04:32:16;25.81;37.31
79014;DHT22;68419;44.714;37.756;2023-03-21T04:33:27;25.81;37.11
79014;DHT22;68419;44.714;37.756;2023-03-21T04:34:31;25.78;37.08
79014;DHT22;68419;44.714;37.756;2023-03-21T04:35:36;25.78;37.03
79014;DHT22;68419;44.714;37.756;2023-03-21T04:36:38;25.77;37.03
79014;DHT22;68419;44.714;37.756;2023-03-21T04:37:47;25.77;36.98
79014;DHT22;68419;44.714;37.756;2023-03-21T04:38:50;25.76;36.98
79014;DHT22;68419;44.714;37.756;2023-03-21T04:39:52;25.74;36.98
79014;DHT22;68419;44.714;37.756;2023-03-21T04:40:54;25.74;36.99
79014;DHT22;68419;44.714;37.756;2023-03-21T04:41:56;25.74;37.00
79014;DHT22;68419;44.714;37.756;2023-03-21T04:42:58;25.73;36.99
79014;DHT22;68419;44.714;37.756;2023-03-21T04:44:02;25.72;36.98
79014;DHT22;68419;44.714;37.756;2023-03-21T04:45:04;25.72;36.96
79014;DHT22;68419;44.714;37.756;2023-03-21T04:46:06;25.69;36.97
79014;DHT22;68419;44.714;37.756;2023-03-21T04:47:08;25.69;36.98
79014;DHT22;68419;44.714;37.756;2023-03-21T04:48:10;25.72;36.94
79014;DHT22;68419;44.714;37.756;2023-03-21T04:49:15;25.73;36.88
79014;DHT22;68419;44.714;37.756;2023-03-21T04:50:18;25.73;36.87
79014;DHT22;68419;44.714;37.756;2023-03-21T04:51:22;25.72;36.87
79014;DHT22;68419;44.714;37.756;2023-03-21T04:52:24;25.72;36.88
79014;DHT22;68419;44.714;37.756;2023-03-21T04:53:25;25.71;36.86
79014;DHT22;68419;44.714;37.756;2023-03-21T04:54:27;25.73;36.84
79014;DHT22;68419;44.714;37.756;2023-03-21T04:55:28;25.72;36.81
79014;DHT22;68419;44.714;37.756;2023-03-21T04:56:31;25.74;36.78
79014;DHT22;68419;44.714;37.756;2023-03-21T04:57:34;25.74;36.74
79014;DHT22;68419;44.714;37.756;2023-03-21T04:58:36;25.74;36.72
79014;DHT22;68419;44.714;37.756;2023-03-21T04:59:39;25.75;36.73
79014;DHT22;68419;44.714;37.756;2023-03-21T05:00:40;25.73;36.75
79014;DHT22;68419;44.714;37.756;2023-03-21T05:01:42;25.73;36.73
79014;DHT22;68419;44.714;37.756;2023-03-21T05:02:44;25.75;36.69
79014;DHT22;68419;44.714;37.756;2023-03-21T05:03:46;25.75;36.67
79014;DHT22;68419;44.714;37.756;2023-03-21T05:04:47;25.75;36.68
79014;DHT22;68419;44.714;37.756;2023-03-21T05:05:49;25.73;36.69
79014;DHT22;68419;44.714;37.756;2023-03-21T05:06:53;25.71;36.71
79014;DHT22;68419;44.714;37.756;2023-03-21T05:07:56;25.72;36.72
79014;DHT22;68419;44.714;37.756;2023-03-21T05:08:59;25.71;36.71
79014;DHT22;68419;44.714;37.756;2023-03-21T05:10:02;25.71;36.72
79014;DHT22;68419;44.714;37.756;2023-03-21T05:11:04;25.71;36.72
79014;DHT22;68419;44.714;37.756;2023-03-21T05:12:06;25.69;36.73
79014;DHT22;68419;44.714;37.756;2023-03-21T05:13:09;25.68;36.75
79014;DHT22;68419;44.714;37.756;2023-03-21T05:14:15;25.68;36.72
79014;DHT22;68419;44.714;37.756;2023-03-21T05:15:17;25.69;36.69
79014;DHT22;68419;44.714;37.756;2023-03-21T05:16:18;25.69;36.70
79014;DHT22;68419;44.714;37.756;2023-03-21T05:17:20;25.71;36.69
79014;DHT22;68419;44.714;37.756;2023-03-21T05:18:26;25.73;36.66
79014;DHT22;68419;44.714;37.756;2023-03-21T05:19:40;25.73;36.66
79014;DHT22;68419;44.714;37.756;2023-03-21T05:20:42;25.73;36.65
79014;DHT22;68419;44.714;37.756;2023-03-21T05:21:44;25.71;36.66
79014;DHT22;68419;44.714;37.756;2023-03-21T05:22:54;25.71;36.66
79014;DHT22;68419;44.714;37.756;2023-03-21T05:23:55;25.72;36.65
79014;DHT22;68419;44.714;37.756;2023-03-21T05:24:58;25.71;36.65
79014;DHT22;68419;44.714;37.756;2023-03-21T05:26:12;25.68;36.71
79014;DHT22;68419;44.714;37.756;2023-03-21T05:27:32;25.68;36.72
79014;DHT22;68419;44.714;37.756;2023-03-21T05:28:43;25.69;36.69
79014;DHT22;68419;44.714;37.756;2023-03-21T05:29:45;25.68;36.69
79014;DHT22;68419;44.714;37.756;2023-03-21T05:30:46;25.68;36.69
79014;DHT22;68419;44.714;37.756;2023-03-21T05:31:48;25.68;36.72
79014;DHT22;68419;44.714;37.756;2023-03-21T05:32:50;25.68;36.72
79014;DHT22;68419;44.714;37.756;2023-03-21T05:33:52;25.68;36.72
79014;DHT22;68419;44.714;37.756;2023-03-21T05:34:54;25.67;36.72
79014;DHT22;68419;44.714;37.756;2023-03-21T05:35:57;25.65;36.76
79014;DHT22;68419;44.714;37.756;2023-03-21T05:37:03;25.66;36.76
79014;DHT22;68419;44.714;37.756;2023-03-21T05:38:25;25.65;36.73
79014;DHT22;68419;44.714;37.756;2023-03-21T05:39:28;25.65;36.75
79014;DHT22;68419;44.714;37.756;2023-03-21T05:40:39;25.66;36.73
79014;DHT22;68419;44.714;37.756;2023-03-21T05:41:41;25.68;36.69
79014;DHT22;68419;44.714;37.756;2023-03-21T05:42:44;25.69;36.66
79014;DHT22;68419;44.714;37.756;2023-03-21T05:43:52;25.71;36.63
79014;DHT22;68419;44.714;37.756;2023-03-21T05:44:53;25.72;36.62
79014;DHT22;68419;44.714;37.756;2023-03-21T05:46:00;25.69;36.66
79014;DHT22;68419;44.714;37.756;2023-03-21T05:47:04;25.66;36.71
79014;DHT22;68419;44.714;37.756;2023-03-21T05:48:13;25.66;36.72
79014;DHT22;68419;44.714;37.756;2023-03-21T05:49:33;25.66;36.70
79014;DHT22;68419;44.714;37.756;2023-03-21T05:50:37;25.68;36.66
79014;DHT22;68419;44.714;37.756;2023-03-21T05:51:50;25.68;36.66
79014;DHT22;68419;44.714;37.756;2023-03-21T05:52:52;25.67;36.68
79014;DHT22;68419;44.714;37.756;2023-03-21T05:53:54;25.66;36.69
79014;DHT22;68419;44.714;37.756;2023-03-21T05:54:56;25.67;36.71
79014;DHT22;68419;44.714;37.756;2023-03-21T05:55:59;25.66;36.70
79014;DHT22;68419;44.714;37.756;2023-03-21T05:57:18;25.67;36.69
79014;DHT22;68419;44.714;37.756;2023-03-21T05:58:40;25.69;36.63
79014;DHT22;68419;44.714;37.756;2023-03-21T05:59:42;25.72;36.58
79014;DHT22;68419;44.714;37.756;2023-03-21T06:00:44;25.69;36.60
79014;DHT22;68419;44.714;37.756;2023-03-21T06:02:02;25.68;36.63
79014;DHT22;68419;44.714;37.756;2023-03-21T06:03:04;25.68;36.61
79014;DHT22;68419;44.714;37.756;2023-03-21T06:04:24;25.71;36.57
79014;DHT22;68419;44.714;37.756;2023-03-21T06:05:26;25.69;36.62
79014;DHT22;68419;44.714;37.756;2023-03-21T06:06:28;25.71;36.59
79014;DHT22;68419;44.714;37.756;2023-03-21T06:07:33;25.72;36.59
79014;DHT22;68419;44.714;37.756;2023-03-21T06:08:35;25.68;36.62
79014;DHT22;68419;44.714;37.756;2023-03-21T06:09:37;25.67;36.65
79014;DHT22;68419;44.714;37.756;2023-03-21T06:10:38;25.67;36.66
79014;DHT22;68419;44.714;37.756;2023-03-21T06:11:45;25.67;36.66
79014;DHT22;68419;44.714;37.756;2023-03-21T06:13:16;25.69;36.60
79014;DHT22;68419;44.714;37.756;2023-03-21T06:14:18;25.69;36.59
79014;DHT22;68419;44.714;37.756;2023-03-21T06:15:28;25.71;36.57
79014;DHT22;68419;44.714;37.756;2023-03-21T06:16:52;25.72;36.55
79014;DHT22;68419;44.714;37.756;2023-03-21T06:17:54;25.72;36.55
79014;DHT22;68419;44.714;37.756;2023-03-21T06:18:56;25.69;36.60
79014;DHT22;68419;44.714;37.756;2023-03-21T06:20:15;25.69;36.59
79014;DHT22;68419;44.714;37.756;2023-03-21T06:21:24;25.68;36.63
79014;DHT22;68419;44.714;37.756;2023-03-21T06:22:26;25.67;36.66
79014;DHT22;68419;44.714;37.756;2023-03-21T06:23:28;25.66;36.69
79014;DHT22;68419;44.714;37.756;2023-03-21T06:24:30;25.64;36.74
79014;DHT22;68419;44.714;37.756;2023-03-21T06:25:32;25.63;36.74
79014;DHT22;68419;44.714;37.756;2023-03-21T06:26:34;25.64;36.75
79014;DHT22;68419;44.714;37.756;2023-03-21T06:27:36;25.63;36.74
79014;DHT22;68419;44.714;37.756;2023-03-21T06:28:40;25.64;36.75
79014;DHT22;68419;44.714;37.756;2023-03-21T06:29:41;25.65;36.71
79014;DHT22;68419;44.714;37.756;2023-03-21T06:30:43;25.64;36.71
79014;DHT22;68419;44.714;37.756;2023-03-21T06:31:56;25.65;36.72
79014;DHT22;68419;44.714;37.756;2023-03-21T06:32:58;25.64;36.72
79014;DHT22;68419;44.714;37.756;2023-03-21T06:34:00;25.64;36.72
79014;DHT22;68419;44.714;37.756;2023-03-21T06:35:02;25.63;36.74
79014;DHT22;68419;44.714;37.756;2023-03-21T06:36:04;25.64;36.74
79014;DHT22;68419;44.714;37.756;2023-03-21T06:37:05;25.64;36.74
79014;DHT22;68419;44.714;37.756;2023-03-21T06:38:09;25.65;36.69
79014;DHT22;68419;44.714;37.756;2023-03-21T06:39:12;25.66;36.68
79014;DHT22;68419;44.714;37.756;2023-03-21T06:40:16;25.67;36.66
79014;DHT22;68419;44.714;37.756;2023-03-21T06:41:19;25.69;36.63
79014;DHT22;68419;44.714;37.756;2023-03-21T06:42:30;25.69;36.60
79014;DHT22;68419;44.714;37.756;2023-03-21T06:43:40;25.73;36.55
79014;DHT22;68419;44.714;37.756;2023-03-21T06:44:42;25.72;36.53
79014;DHT22;68419;44.714;37.756;2023-03-21T06:45:48;25.71;36.56
79014;DHT22;68419;44.714;37.756;2023-03-21T06:46:50;25.69;36.62
79014;DHT22;68419;44.714;37.756;2023-03-21T06:47:53;25.69;36.59
79014;DHT22;68419;44.714;37.756;2023-03-21T06:49:06;25.71;36.60
79014;DHT22;68419;44.714;37.756;2023-03-21T06:50:09;25.68;36.63
79014;DHT22;68419;44.714;37.756;2023-03-21T06:51:15;25.68;36.65
79014;DHT22;68419;44.714;37.756;2023-03-21T06:52:30;25.67;36.62
79014;DHT22;68419;44.714;37.756;2023-03-21T06:53:32;25.69;36.62
79014;DHT22;68419;44.714;37.756;2023-03-21T06:55:02;25.69;36.59
79014;DHT22;68419;44.714;37.756;2023-03-21T06:56:06;25.68;36.63
79014;DHT22;68419;44.714;37.756;2023-03-21T06:57:09;25.68;36.63
79014;DHT22;68419;44.714;37.756;2023-03-21T06:58:12;25.67;36.63
79014;DHT22;68419;44.714;37.756;2023-03-21T06:59:14;25.71;36.61
79014;DHT22;68419;44.714;37.756;2023-03-21T07:00:28;25.66;36.67
79014;DHT22;68419;44.714;37.756;2023-03-21T07:01:30;25.63;36.70
79014;DHT22;68419;44.714;37.756;2023-03-21T07:02:39;25.64;36.72
79014;DHT22;68419;44.714;37.756;2023-03-21T07:03:45;25.64;36.73
79014;DHT22;68419;44.714;37.756;2023-03-21T07:04:47;25.65;36.71
79014;DHT22;68419;44.714;37.756;2023-03-21T07:05:54;25.66;36.69
79014;DHT22;68419;44.714;37.756;2023-03-21T07:06:57;25.65;36.69
79014;DHT22;68419;44.714;37.756;2023-03-21T07:07:59;25.66;36.68
79014;DHT22;68419;44.714;37.756;2023-03-21T07:09:04;25.66;36.68
79014;DHT22;68419;44.714;37.756;2023-03-21T07:10:08;25.66;36.67
79014;DHT22;68419;44.714;37.756;2023-03-21T07:11:19;25.68;36.64
79014;DHT22;68419;44.714;37.756;2023-03-21T07:12:22;25.66;36.69
79014;DHT22;68419;44.714;37.756;2023-03-21T07:13:53;25.69;36.63
79014;DHT22;68419;44.714;37.756;2023-03-21T07:14:55;25.67;36.66
79014;DHT22;68419;44.714;37.756;2023-03-21T07:15:57;25.68;36.68
79014;DHT22;68419;44.714;37.756;2023-03-21T07:16:59;25.66;36.71
79014;DHT22;68419;44.714;37.756;2023-03-21T07:18:01;25.66;36.72
79014;DHT22;68419;44.714;37.756;2023-03-21T07:19:02;25.65;36.72
79014;DHT22;68419;44.714;37.756;2023-03-21T07:20:04;25.64;36.74
79014;DHT22;68419;44.714;37.756;2023-03-21T07:21:09;25.64;36.74
79014;DHT22;68419;44.714;37.756;2023-03-21T07:22:12;25.63;36.76
79014;DHT22;68419;44.714;37.756;2023-03-21T07:23:13;25.66;36.74